Aviation Digital Data Service (ADDS)

Output produced by METARs form (1006 UTC 23 October 2017)
found at http://aviationweather.gov/adds/metars/
 
KBHB 230520Z 2306/2406 VRB02KT P6SM OVC008 
     FM230800 VRB02KT 2SM BR SCT003 
     FM231200 VRB02KT P6SM SCT003 
     FM240500 18005KT 2SM BR SCT015